Terminal Aerodrome Forecast
Issued by NWS

Home | Current Version | Previous Version | Text Only | Print | Product List | Glossary On
Versions: 1 2 3 4 5 6 7 8 9 10 11 12 13 14 15 16 17 18 19 20 21 22 23 24 25 26 27 28 29 30 31 32 33 34 35 36 37 38 39 40
000
FTUS42 KJAX 261000 AAB
TAFVQQ
TAF AMD
KVQQ 261009Z 2610/2706 31010G18KT 2SM -RA BR OVC007
     FM261400 31014G22KT P6SM VCSH SCT005 BKN015
     FM261900 29012G20KT P6SM SCT025 SCT250
     FM262300 28005KT P6SM SKC=

USA.gov is the U.S. government's official web portal to all federal, state and local government web resources and services.